Time;durP1;ratioP1;P1;durP2;ratioP2;P2;SDS_P1;SDS_P2;PMS_P1;PMS_P2;Temp;Humidity;BMP_temperature;BMP_pressure;BME280_temperature;BME280_humidity;BME280_pressure;Samples;Min_cycle;Max_cycle;Signal;HPM_P1;HPM_P2
2021/04/02 00:01:07;;;;;;;27.37;12.47;;;;;;;3.73;88.77;102139.78;5075656;28;20043;-65
2021/04/02 00:03:38;;;;;;;22.13;10.60;;;;;;;3.72;88.92;102138.09;5092330;28;20058;-65
2021/04/02 00:06:05;;;;;;;24.88;11.82;;;;;;;3.66;88.69;102138.41;5093147;28;20036;-65
2021/04/02 00:08:31;;;;;;;22.20;11.45;;;;;;;3.48;88.31;102136.75;5092945;28;20047;-65
2021/04/02 00:10:59;;;;;;;26.73;10.90;;;;;;;3.42;88.49;102139.72;5092301;28;20036;-65
2021/04/02 00:13:28;;;;;;;25.55;11.68;;;;;;;3.36;88.63;102136.47;5093153;28;20449;-65
2021/04/02 00:15:54;;;;;;;21.90;10.48;;;;;;;3.33;88.62;102126.09;5093058;28;20044;-65
2021/04/02 00:18:21;;;;;;;21.58;10.70;;;;;;;3.33;88.35;102131.38;5092210;28;20048;-65
2021/04/02 00:20:47;;;;;;;20.08;9.55;;;;;;;3.28;88.49;102132.56;5092061;28;20469;-65
2021/04/02 00:23:13;;;;;;;21.03;10.37;;;;;;;3.29;88.37;102129.81;5075131;28;20543;-65
2021/04/02 00:25:38;;;;;;;37.47;14.18;;;;;;;3.29;88.54;102124.53;5092832;28;20032;-65
2021/04/02 00:28:05;;;;;;;25.40;12.60;;;;;;;3.44;88.72;102111.47;5092492;28;20035;-65
2021/04/02 00:30:38;;;;;;;31.23;13.90;;;;;;;3.46;88.45;102113.06;5092818;28;20028;-65
2021/04/02 00:33:05;;;;;;;30.05;13.25;;;;;;;3.55;88.15;102111.72;5092718;28;20032;-65
2021/04/02 00:35:30;;;;;;;72.30;16.52;;;;;;;3.54;88.06;102118.81;5074866;28;20096;-65
2021/04/02 00:37:56;;;;;;;34.03;13.97;;;;;;;3.42;88.14;102114.19;5092446;28;20395;-65
2021/04/02 00:40:28;;;;;;;36.13;13.35;;;;;;;3.36;88.68;102110.09;5074815;28;20411;-65
2021/04/02 00:42:54;;;;;;;39.17;12.63;;;;;;;3.35;88.77;102111.03;5091618;28;20098;-65
2021/04/02 00:45:21;;;;;;;37.75;11.73;;;;;;;3.38;88.69;102104.72;5091518;28;20473;-65
2021/04/02 00:47:47;;;;;;;;;;;;;;;3.25;88.51;102098.41;5074641;28;20035;-65
2021/04/02 00:50:13;;;;;;;;;;;;;;;3.29;88.62;102099.94;5092914;28;20363;-65
2021/04/02 00:52:39;;;;;;;308.10;28.67;;;;;;;3.05;88.54;102094.19;5074483;28;20018;-65
2021/04/02 00:55:05;;;;;;;130.82;17.08;;;;;;;2.95;89.08;102089.41;5091334;28;20115;-65
2021/04/02 00:57:32;;;;;;;73.20;15.82;;;;;;;3.02;89.30;102094.31;5090917;28;20028;-65
2021/04/02 00:59:58;;;;;;;115.70;17.17;;;;;;;2.98;89.53;102077.81;5091256;28;20036;-65
2021/04/02 01:02:23;;;;;;;141.93;16.87;;;;;;;2.89;89.32;102087.06;5091129;28;20432;-65
2021/04/02 01:04:49;;;;;;;97.15;16.15;;;;;;;2.85;89.38;102082.88;5091231;28;20042;-65
2021/04/02 01:07:14;;;;;;;279.53;21.43;;;;;;;2.82;89.66;102077.75;5091037;28;20072;-65
2021/04/02 01:09:40;;;;;;;173.35;18.65;;;;;;;2.84;89.82;102070.63;5090837;28;20089;-65
2021/04/02 01:12:06;;;;;;;126.43;15.47;;;;;;;2.74;90.18;102072.06;5091170;28;20112;-65
2021/04/02 01:14:32;;;;;;;136.77;16.77;;;;;;;2.72;90.38;102071.28;5090951;28;20122;-65
2021/04/02 01:16:57;;;;;;;117.20;16.27;;;;;;;2.73;90.10;102067.69;5091911;28;20505;-65
2021/04/02 01:19:33;;;;;;;114.82;16.05;;;;;;;2.68;90.36;102070.56;5073895;28;20028;-65
2021/04/02 01:22:06;;;;;;;219.63;21.58;;;;;;;2.65;90.36;102065.47;5091044;28;20091;-65
2021/04/02 01:24:58;;;;;;;100.35;15.00;;;;;;;2.65;90.75;102069.88;5091010;28;20621;-65
2021/04/02 01:27:54;;;;;;;132.98;17.38;;;;;;;2.57;90.55;102061.50;5090480;28;20126;-65
2021/04/02 01:30:21;;;;;;;108.47;15.82;;;;;;;2.60;90.81;102062.22;5090150;28;20028;-65
2021/04/02 01:32:48;;;;;;;;;;;;;;;2.44;90.22;102071.84;5091135;28;20396;-65
2021/04/02 01:35:38;;;;;;;140.48;12.25;;;;;;;2.43;90.34;102064.84;5074438;28;19916;-64
2021/04/02 01:38:21;;;;;;;32.38;10.45;;;;;;;2.41;90.31;102067.56;5091347;28;20097;-65
2021/04/02 01:40:52;;;;;;;71.80;13.63;;;;;;;2.48;90.43;102066.31;5074047;28;20047;-64
2021/04/02 01:43:23;;;;;;;52.85;11.70;;;;;;;2.37;90.19;102080.97;5073717;28;20078;-64
2021/04/02 01:45:51;;;;;;;89.13;12.93;;;;;;;2.25;90.42;102080.66;5090403;28;20147;-64
2021/04/02 01:48:19;;;;;;;41.00;10.68;;;;;;;2.31;90.41;102079.47;5091170;28;20236;-64
2021/04/02 01:50:50;;;;;;;84.47;12.70;;;;;;;2.28;90.56;102077.84;5090508;28;20484;-64
2021/04/02 01:53:19;;;;;;;78.22;11.13;;;;;;;2.22;90.72;102072.88;5091480;28;20361;-64
2021/04/02 01:55:49;;;;;;;35.70;11.80;;;;;;;2.32;90.96;102068.03;5090378;28;20388;-65
2021/04/02 01:58:14;;;;;;;29.33;9.70;;;;;;;2.32;90.93;102068.03;5090067;28;20509;-64
2021/04/02 02:00:48;;;;;;;68.60;13.05;;;;;;;2.17;90.56;102063.50;5090218;28;20115;-64
2021/04/02 02:03:18;;;;;;;66.63;10.43;;;;;;;2.06;90.80;102057.00;5090340;28;20082;-64
2021/04/02 02:05:47;;;;;;;43.35;12.30;;;;;;;2.19;91.05;102054.59;5090298;28;20427;-64
2021/04/02 02:08:26;;;;;;;26.35;9.95;;;;;;;2.09;90.82;102043.66;5074615;28;20052;-64
2021/04/02 02:11:17;;;;;;;37.42;10.02;;;;;;;2.10;91.14;102032.19;5073600;28;20054;-64
2021/04/02 02:13:50;;;;;;;83.35;12.57;;;;;;;2.13;90.79;102020.66;5090254;28;20040;-64
2021/04/02 02:16:24;;;;;;;127.22;12.30;;;;;;;2.03;90.99;102020.25;5074159;28;20059;-64
2021/04/02 02:18:53;;;;;;;66.38;12.18;;;;;;;2.08;90.94;102015.63;5089833;28;20117;-64
2021/04/02 02:21:21;;;;;;;54.80;11.45;;;;;;;2.06;91.24;102025.38;5073186;28;20524;-64
2021/04/02 02:23:49;;;;;;;90.00;11.73;;;;;;;2.10;91.15;102016.38;5090224;28;20039;-64
2021/04/02 02:26:17;;;;;;;96.85;12.15;;;;;;;2.11;91.39;102026.00;5090236;28;20372;-64
2021/04/02 02:28:47;;;;;;;52.15;11.02;;;;;;;2.28;91.18;102030.41;5073458;28;20063;-64
2021/04/02 02:31:14;;;;;;;57.28;13.13;;;;;;;2.31;91.14;102024.13;5073384;28;20051;-64
2021/04/02 02:33:41;;;;;;;29.90;10.45;;;;;;;2.30;91.17;102020.66;5089967;28;20028;-64
2021/04/02 02:36:24;;;;;;;65.13;13.25;;;;;;;2.36;91.27;102016.00;5090048;28;20031;-64
2021/04/02 02:38:50;;;;;;;32.00;11.70;;;;;;;2.40;91.28;102021.03;5090686;28;20032;-64
2021/04/02 02:41:16;;;;;;;34.70;10.45;;;;;;;2.37;91.02;102025.63;5092666;28;20042;-64
2021/04/02 02:43:42;;;;;;;78.03;13.25;;;;;;;2.18;91.19;102029.19;5094961;28;20035;-64
2021/04/02 02:46:08;;;;;;;33.40;11.13;;;;;;;2.25;91.47;102035.00;5076927;28;20028;-64
2021/04/02 02:48:34;;;;;;;100.60;14.73;;;;;;;2.33;91.57;102031.03;5093330;28;20092;-64
2021/04/02 02:51:01;;;;;;;22.15;10.07;;;;;;;2.42;91.43;102021.81;5077083;28;20040;-64
2021/04/02 02:53:32;;;;;;;30.75;12.15;;;;;;;2.30;91.28;102022.44;5093770;28;20537;-64
2021/04/02 02:56:04;;;;;;;21.67;11.45;;;;;;;2.36;91.13;102019.47;5077480;28;20027;-64
2021/04/02 02:58:37;;;;;;;21.98;10.50;;;;;;;2.41;90.86;102013.97;5093321;28;20039;-64
2021/04/02 03:01:03;;;;;;;20.17;10.43;;;;;;;2.42;90.79;102006.00;5093426;28;20461;-64
2021/04/02 03:03:30;;;;;;;;;;;;;;;2.31;90.58;101997.78;5095015;28;20480;-65
2021/04/02 03:06:02;;;;;;;88.55;16.60;;;;;;;2.19;90.64;102004.53;5093501;28;20360;-65
2021/04/02 03:08:45;;;;;;;22.85;9.32;;;;;;;2.27;90.91;101993.59;5093103;28;20035;-65
2021/04/02 03:11:15;;;;;;;20.63;10.25;;;;;;;2.27;91.04;101990.97;5094196;28;20038;-65
2021/04/02 03:13:41;;;;;;;61.50;11.45;;;;;;;2.33;91.08;101991.50;5076500;28;20036;-65
2021/04/02 03:16:10;;;;;;;30.15;10.95;;;;;;;2.30;91.07;101991.66;5094261;28;20020;-65
2021/04/02 03:18:37;;;;;;;25.63;11.30;;;;;;;2.32;91.22;101981.06;5093874;28;20028;-65
2021/04/02 03:21:07;;;;;;;27.45;12.10;;;;;;;2.32;91.26;101988.97;5093285;28;20028;-65
2021/04/02 03:23:37;;;;;;;26.05;12.27;;;;;;;2.40;91.16;101991.19;5094025;28;20052;-65
2021/04/02 03:26:04;;;;;;;28.88;12.00;;;;;;;2.38;91.35;101983.34;5092807;28;20036;-65
2021/04/02 03:28:31;;;;;;;37.47;13.88;;;;;;;2.43;91.38;101981.31;5092699;28;20051;-65
2021/04/02 03:30:58;;;;;;;40.13;14.02;;;;;;;2.36;91.23;101972.03;5093945;28;20035;-65
2021/04/02 03:33:34;;;;;;;29.52;13.50;;;;;;;2.38;91.21;101980.72;5093031;28;20035;-65
2021/04/02 03:36:13;;;;;;;26.30;12.73;;;;;;;2.24;91.10;101970.88;5092971;28;20057;-65
2021/04/02 03:38:42;;;;;;;27.83;13.98;;;;;;;2.26;91.00;101970.81;5075833;28;20028;-65
2021/04/02 03:41:32;;;;;;;31.10;14.82;;;;;;;2.37;91.09;101965.00;5076156;28;20076;-65
2021/04/02 03:44:04;;;;;;;46.30;14.85;;;;;;;2.33;90.95;101972.22;5092858;28;20024;-65
2021/04/02 03:46:30;;;;;;;39.75;16.92;;;;;;;2.21;90.95;101978.13;5092673;28;20096;-65
2021/04/02 03:49:02;;;;;;;32.47;16.85;;;;;;;2.28;91.17;101982.13;5075713;28;20043;-65
2021/04/02 03:51:32;;;;;;;40.65;18.95;;;;;;;2.32;91.21;101983.69;5092283;28;20051;-64
2021/04/02 03:54:05;;;;;;;41.63;18.25;;;;;;;2.24;91.07;101989.34;5092388;28;20036;-65
2021/04/02 03:56:35;;;;;;;40.88;18.52;;;;;;;2.20;90.97;101994.84;5093434;28;20039;-65
2021/04/02 03:59:04;;;;;;;38.80;20.17;;;;;;;2.22;91.24;102003.53;5093074;28;20067;-65
2021/04/02 04:01:39;;;;;;;45.90;20.45;;;;;;;2.20;91.21;101994.84;5093384;28;20285;-65
2021/04/02 04:04:06;;;;;;;47.88;21.48;;;;;;;2.17;91.03;101992.38;5092377;28;20024;-65
2021/04/02 04:06:38;;;;;;;38.17;19.30;;;;;;;2.19;91.54;101983.44;5092351;28;20185;-65
2021/04/02 04:09:11;;;;;;;35.53;19.65;;;;;;;2.21;91.11;101980.75;5091964;28;20043;-65
2021/04/02 04:11:39;;;;;;;33.95;17.10;;;;;;;2.30;91.05;101985.56;5092157;28;20077;-64
2021/04/02 04:14:07;;;;;;;30.70;15.57;;;;;;;2.27;90.99;101980.41;5092289;28;20059;-65
2021/04/02 04:16:36;;;;;;;30.15;15.77;;;;;;;2.30;90.63;101969.75;5075447;28;20070;-65
2021/04/02 04:19:03;;;;;;;35.20;16.50;;;;;;;2.36;90.62;101968.56;5091810;28;20020;-65
2021/04/02 04:21:41;;;;;;;39.92;17.92;;;;;;;2.36;90.24;101969.41;5092253;28;20034;-65
2021/04/02 04:24:15;;;;;;;36.33;14.93;;;;;;;2.28;89.93;101971.59;5075610;28;20032;-65
2021/04/02 04:26:44;;;;;;;31.52;15.77;;;;;;;2.24;89.64;101970.03;5091962;28;20031;-65
2021/04/02 04:29:16;;;;;;;30.33;15.93;;;;;;;2.13;89.30;101967.09;5091687;28;20043;-65
2021/04/02 04:31:43;;;;;;;31.48;14.32;;;;;;;2.20;89.31;101960.59;5092912;28;20085;-65
2021/04/02 04:34:10;;;;;;;31.48;15.18;;;;;;;2.23;89.51;101958.66;5092831;28;20046;-65
2021/04/02 04:36:36;;;;;;;25.30;13.75;;;;;;;2.19;89.55;101957.09;5091813;28;20438;-65
2021/04/02 04:39:05;;;;;;;29.17;15.40;;;;;;;2.22;89.52;101953.44;5092304;28;20161;-65
2021/04/02 04:41:31;;;;;;;37.38;17.48;;;;;;;2.17;89.26;101950.22;5074809;28;20143;-65
2021/04/02 04:43:58;;;;;;;32.90;16.50;;;;;;;2.16;89.42;101941.47;5074734;28;20118;-65
2021/04/02 04:46:23;;;;;;;40.05;15.90;;;;;;;2.18;89.06;101941.34;5074440;28;20043;-65
2021/04/02 04:48:49;;;;;;;26.27;13.35;;;;;;;2.14;88.94;101940.69;5092107;28;20032;-65
2021/04/02 04:51:19;;;;;;;32.83;15.03;;;;;;;2.10;88.83;101949.66;5092544;28;20432;-65
2021/04/02 04:53:49;;;;;;;29.00;12.70;;;;;;;1.99;88.76;101950.22;5091535;28;20119;-65
2021/04/02 04:56:15;;;;;;;32.15;13.05;;;;;;;2.07;88.70;101952.47;5091420;28;20365;-65
2021/04/02 04:58:45;;;;;;;27.60;13.77;;;;;;;2.06;88.51;101946.34;5091222;28;20085;-65
2021/04/02 05:01:12;;;;;;;29.75;13.10;;;;;;;2.11;88.41;101949.59;5092472;28;20697;-65
2021/04/02 05:03:38;;;;;;;26.45;13.05;;;;;;;2.16;88.82;101952.00;5091394;28;20456;-65
2021/04/02 05:06:05;;;;;;;;;;;;;;;2.11;88.33;101949.59;5092586;28;20044;-65
2021/04/02 05:08:41;;;;;;;32.53;11.52;;;;;;;1.89;88.36;101944.53;5091902;28;19927;-64
2021/04/02 05:11:10;;;;;;;31.27;11.20;;;;;;;1.95;88.81;101946.03;5074111;28;20064;-64
2021/04/02 05:13:37;;;;;;;35.38;10.75;;;;;;;1.94;88.50;101944.31;5091316;28;20040;-64
2021/04/02 05:16:05;;;;;;;26.92;10.48;;;;;;;1.84;88.56;101941.28;5091049;28;20035;-65
2021/04/02 05:18:31;;;;;;;21.88;10.38;;;;;;;1.85;88.83;101937.75;5073833;28;20055;-65
2021/04/02 05:20:57;;;;;;;27.63;9.45;;;;;;;1.96;88.65;101931.06;5091867;28;20115;-65
2021/04/02 05:23:22;;;;;;;19.33;8.68;;;;;;;2.00;88.23;101940.53;5091112;28;20127;-64
2021/04/02 05:25:48;;;;;;;19.15;8.05;;;;;;;2.03;88.19;101930.69;5090847;28;20036;-65
2021/04/02 05:28:14;;;;;;;33.83;7.43;;;;;;;2.08;87.92;101940.97;5091598;28;20097;-65
2021/04/02 05:30:39;;;;;;;19.55;7.25;;;;;;;2.17;88.03;101944.94;5091819;28;20032;-64
2021/04/02 05:33:05;;;;;;;20.57;7.30;;;;;;;2.15;87.32;101942.38;5091738;28;20064;-65
2021/04/02 05:35:31;;;;;;;19.35;6.53;;;;;;;2.18;87.15;101930.81;5091528;28;20068;-65
2021/04/02 05:37:57;;;;;;;20.63;6.55;;;;;;;2.12;86.90;101934.63;5090502;28;20066;-65
2021/04/02 05:40:23;;;;;;;21.42;7.70;;;;;;;2.14;87.35;101929.28;5090585;28;20059;-78
2021/04/02 05:43:01;;;;;;;22.38;6.07;;;;;;;2.21;86.72;101933.31;5090745;28;20035;-78
2021/04/02 05:45:29;;;;;;;16.77;5.25;;;;;;;2.24;86.30;101928.72;5090683;28;20050;-79
2021/04/02 05:47:56;;;;;;;18.63;6.82;;;;;;;2.28;85.83;101926.78;5091456;28;20040;-79
2021/04/02 05:50:23;;;;;;;18.67;5.15;;;;;;;2.44;86.03;101932.13;5090754;28;20404;-78
2021/04/02 05:52:51;;;;;;;18.98;6.13;;;;;;;2.49;85.74;101925.66;5091681;28;20093;-78
2021/04/02 05:55:17;;;;;;;19.73;6.22;;;;;;;2.48;85.05;101910.78;5090551;28;20089;-78
2021/04/02 05:57:46;;;;;;;36.35;7.35;;;;;;;2.58;85.01;101918.22;5090498;28;20368;-80
2021/04/02 06:00:13;;;;;;;26.73;6.18;;;;;;;2.64;84.69;101918.72;5090622;28;20480;-78
2021/04/02 06:02:40;;;;;;;16.08;5.03;;;;;;;2.67;84.82;101915.06;5090939;28;20051;-78
2021/04/02 06:05:08;;;;;;;16.23;4.15;;;;;;;2.62;84.46;101917.09;5090595;28;20027;-79
2021/04/02 06:07:37;;;;;;;17.65;5.85;;;;;;;2.62;84.64;101919.72;5090204;28;20468;-78
2021/04/02 06:10:04;;;;;;;12.85;4.78;;;;;;;2.78;84.56;101919.75;5090576;28;20032;-78
2021/04/02 06:12:30;;;;;;;13.77;4.22;;;;;;;2.75;84.00;101921.63;5073608;28;20369;-78
2021/04/02 06:14:56;;;;;;;18.10;5.68;;;;;;;2.81;83.96;101911.66;5091075;28;20060;-78
2021/04/02 06:17:21;;;;;;;16.67;5.07;;;;;;;2.87;83.09;101911.34;5095716;28;20032;-77
2021/04/02 06:20:03;;;;;;;20.40;4.90;;;;;;;2.82;83.16;101913.38;5094555;28;20124;-77
2021/04/02 06:22:28;;;;;;;20.73;4.03;;;;;;;2.80;81.77;101904.69;5094721;28;20058;-76
2021/04/02 06:24:54;;;;;;;18.87;5.03;;;;;;;3.26;82.88;101903.00;5095624;28;20032;-77
2021/04/02 06:27:19;;;;;;;12.30;2.93;;;;;;;3.72;79.51;101900.34;5094397;28;20043;-78
2021/04/02 06:30:01;;;;;;;16.33;3.47;;;;;;;3.43;78.94;101896.75;5094029;28;20027;-77
2021/04/02 06:32:34;;;;;;;23.40;3.60;;;;;;;3.24;79.85;101898.75;5077436;28;20032;-77
2021/04/02 06:35:07;;;;;;;12.68;4.28;;;;;;;3.19;78.67;101896.38;5095219;28;20039;-77
2021/04/02 06:37:33;;;;;;;19.42;3.78;;;;;;;3.20;79.85;101900.69;5094955;28;20032;-78
2021/04/02 06:39:58;;;;;;;14.45;3.85;;;;;;;3.20;80.17;101900.69;5095175;28;20036;-78
2021/04/02 06:42:31;;;;;;;10.03;3.10;;;;;;;3.12;80.07;101889.72;5094253;28;20472;-77
2021/04/02 06:45:06;;;;;;;17.63;3.53;;;;;;;3.13;80.55;101872.94;5077400;28;20043;-79
2021/04/02 06:47:43;;;;;;;10.43;3.40;;;;;;;3.32;80.22;101880.66;5094278;28;20177;-79
2021/04/02 06:50:15;;;;;;;16.48;3.88;;;;;;;3.38;79.48;101885.59;5096603;28;20032;-78
2021/04/02 06:52:40;;;;;;;18.92;4.10;;;;;;;3.49;79.56;101870.00;5094864;28;20480;-78
2021/04/02 06:55:11;;;;;;;8.02;3.13;;;;;;;3.46;79.45;101871.97;5095202;28;20040;-77
2021/04/02 06:57:36;;;;;;;16.98;3.65;;;;;;;3.62;79.64;101867.47;5093874;28;20063;-78
2021/04/02 07:00:03;;;;;;;17.40;4.00;;;;;;;3.76;79.47;101867.53;5094876;28;20078;-78
2021/04/02 07:02:29;;;;;;;17.17;4.40;;;;;;;3.89;78.60;101864.16;5093430;28;20047;-78
2021/04/02 07:04:58;;;;;;;11.27;3.97;;;;;;;3.88;78.43;101858.00;5093645;28;20040;-77
2021/04/02 07:07:25;;;;;;;15.40;4.53;;;;;;;4.02;77.79;101849.25;5094406;28;20035;-78
2021/04/02 07:09:55;;;;;;;19.55;3.97;;;;;;;4.16;77.80;101857.19;5094428;28;20101;-77
2021/04/02 07:12:20;;;;;;;16.60;3.88;;;;;;;4.13;77.16;101849.47;5094344;28;20032;-79
2021/04/02 07:14:47;;;;;;;18.17;4.77;;;;;;;4.09;77.52;101845.28;5094654;28;20854;-78
2021/04/02 07:17:12;;;;;;;14.40;3.78;;;;;;;4.07;76.82;101846.34;5094185;28;20036;-78
2021/04/02 07:19:40;;;;;;;18.17;4.25;;;;;;;4.11;76.57;101848.69;5094234;28;20379;-79
2021/04/02 07:22:06;;;;;;;12.15;3.75;;;;;;;4.33;76.91;101840.31;5094282;28;20138;-80
2021/04/02 07:24:33;;;;;;;16.52;4.75;;;;;;;4.33;75.85;101850.88;5093202;28;20346;-79
2021/04/02 07:27:06;;;;;;;14.48;3.90;;;;;;;4.29;75.37;101845.88;5092231;28;20020;-80
2021/04/02 07:29:32;;;;;;;28.88;4.32;;;;;;;4.21;76.10;101843.69;5092758;28;20032;-79
2021/04/02 07:31:57;;;;;;;21.75;4.82;;;;;;;4.33;75.94;101835.03;5093993;28;20117;-79
2021/04/02 07:34:23;;;;;;;18.27;4.67;;;;;;;4.39;76.46;101836.41;5093091;28;20039;-79
2021/04/02 07:36:49;;;;;;;16.77;3.80;;;;;;;4.56;75.95;101843.28;5093226;28;20040;-79
2021/04/02 07:39:19;;;;;;;12.13;3.63;;;;;;;4.41;75.64;101829.25;5092826;28;20028;-79
2021/04/02 07:41:48;;;;;;;18.42;4.20;;;;;;;4.48;75.33;101833.22;5094093;28;20060;-78
2021/04/02 07:44:17;;;;;;;13.82;4.82;;;;;;;4.38;75.10;101824.16;5092568;28;20028;-79
2021/04/02 07:47:02;;;;;;;22.70;4.35;;;;;;;4.65;75.39;101809.16;5092910;28;20038;-79
2021/04/02 07:49:30;;;;;;;17.02;4.55;;;;;;;4.65;73.61;101819.75;5092363;28;20047;-78
2021/04/02 07:51:56;;;;;;;16.27;4.43;;;;;;;4.67;73.53;101817.00;5092743;28;20050;-78
2021/04/02 07:54:30;;;;;;;22.05;5.07;;;;;;;4.76;73.66;101802.34;5093602;28;20035;-80
2021/04/02 07:56:57;;;;;;;15.05;3.75;;;;;;;5.01;73.48;101798.94;5076261;28;20087;-79
2021/04/02 07:59:40;;;;;;;25.10;4.55;;;;;;;5.00;71.86;101799.91;5093235;28;20024;-78
2021/04/02 08:02:10;;;;;;;26.27;5.45;;;;;;;5.00;71.96;101803.41;5075831;28;20109;-79
2021/04/02 08:04:38;;;;;;;15.73;4.03;;;;;;;5.03;71.63;101810.28;5093456;28;20093;-79
2021/04/02 08:07:11;;;;;;;13.10;3.33;;;;;;;4.94;71.19;101816.16;5092253;28;20028;-79
2021/04/02 08:09:49;;;;;;;16.33;3.63;;;;;;;5.10;70.31;101822.16;5093188;28;20110;-80
2021/04/02 08:12:21;;;;;;;14.55;4.72;;;;;;;5.08;70.07;101814.34;5093358;28;20035;-80
2021/04/02 08:14:49;;;;;;;17.85;3.45;;;;;;;5.39;69.88;101833.50;5093330;28;20096;-79
2021/04/02 08:17:19;;;;;;;19.50;4.85;;;;;;;5.65;68.77;101833.53;5093191;28;20090;-80
2021/04/02 08:19:46;;;;;;;21.25;5.30;;;;;;;5.58;69.14;101829.63;5091838;28;20101;-79
2021/04/02 08:22:24;;;;;;;13.00;3.20;;;;;;;6.04;68.37;101830.00;5093218;28;20330;-80
2021/04/02 08:24:50;;;;;;;14.38;3.78;;;;;;;6.70;65.44;101838.59;5093082;28;20036;-79
2021/04/02 08:27:16;;;;;;;23.20;5.40;;;;;;;6.44;66.41;101831.63;5092056;28;20117;-78
2021/04/02 08:29:44;;;;;;;27.08;4.28;;;;;;;6.16;67.29;101838.03;5092207;28;20032;-80
2021/04/02 08:32:12;;;;;;;24.70;4.95;;;;;;;5.68;66.45;101841.28;5092827;28;20042;-80
2021/04/02 08:34:38;;;;;;;18.98;3.78;;;;;;;5.91;65.86;101843.19;5092984;28;20069;-80
2021/04/02 08:37:09;;;;;;;26.27;5.65;;;;;;;5.76;67.20;101836.31;5092990;28;20024;-79
2021/04/02 08:39:35;;;;;;;15.90;4.30;;;;;;;6.02;66.80;101836.38;5091608;28;20092;-79
2021/04/02 08:42:09;;;;;;;20.27;4.25;;;;;;;5.91;66.57;101832.59;5091861;28;20044;-79
2021/04/02 08:44:43;;;;;;;19.00;3.63;;;;;;;5.91;67.10;101837.06;5091970;28;20032;-79
2021/04/02 08:47:12;;;;;;;21.42;5.63;;;;;;;5.83;66.97;101836.72;5092758;28;20032;-80
2021/04/02 08:49:40;;;;;;;18.27;4.07;;;;;;;5.78;67.99;101830.88;5092364;28;20051;-79
2021/04/02 08:52:07;;;;;;;22.35;5.47;;;;;;;5.81;67.49;101822.75;5092584;28;20459;-79
2021/04/02 08:54:33;;;;;;;14.20;4.45;;;;;;;5.71;68.45;101819.84;5092696;28;20032;-78
2021/04/02 08:56:58;;;;;;;14.73;3.53;;;;;;;5.79;67.82;101820.19;5092328;28;20062;-78
2021/04/02 08:59:23;;;;;;;23.47;4.40;;;;;;;6.00;67.59;101817.91;5092184;28;20123;-79
2021/04/02 09:01:50;;;;;;;16.03;5.60;;;;;;;5.81;67.13;101809.50;5091586;28;20063;-79
2021/04/02 09:04:18;;;;;;;17.90;5.05;;;;;;;5.90;68.22;101807.06;5091436;28;20036;-80
2021/04/02 09:06:45;;;;;;;18.65;4.40;;;;;;;6.15;67.12;101793.91;5092513;28;20039;-80
2021/04/02 09:09:19;;;;;;;15.25;3.40;;;;;;;6.17;66.42;101797.31;5091198;28;20036;-79
2021/04/02 09:11:46;;;;;;;13.35;3.70;;;;;;;6.34;66.78;101789.88;5091861;28;20118;-78
2021/04/02 09:14:13;;;;;;;19.27;4.07;;;;;;;6.31;66.26;101803.31;5092278;28;20437;-79
2021/04/02 09:16:40;;;;;;;15.30;3.30;;;;;;;6.09;67.11;101813.78;5091429;28;20118;-79
2021/04/02 09:19:06;;;;;;;17.98;4.00;;;;;;;6.11;67.00;101814.47;5091733;28;20372;-79
2021/04/02 09:21:32;;;;;;;;;;;;;;;6.17;67.75;101808.75;5091469;28;20423;-80
2021/04/02 09:23:57;;;;;;;;;;;;;;;5.90;67.22;101801.75;5092419;28;19916;-78
2021/04/02 09:26:23;;;;;;;20.03;4.57;;;;;;;5.92;67.64;101794.56;5090735;28;19942;-79
2021/04/02 09:28:49;;;;;;;19.43;5.10;;;;;;;6.04;68.24;101807.91;5091438;28;20044;-79
2021/04/02 09:31:29;;;;;;;15.23;3.83;;;;;;;5.79;67.69;101793.69;5091796;28;20036;-79
2021/04/02 09:34:04;;;;;;;18.13;4.97;;;;;;;5.81;68.01;101794.44;5090708;28;20032;-78
2021/04/02 09:36:32;;;;;;;19.40;4.50;;;;;;;5.77;68.75;101803.56;5090666;28;20043;-78
2021/04/02 09:39:12;;;;;;;18.10;5.13;;;;;;;5.84;68.08;101799.53;5090321;28;20039;-78
2021/04/02 09:41:41;;;;;;;13.68;4.40;;;;;;;5.79;67.67;101793.69;5091724;28;20067;-79
2021/04/02 09:44:12;;;;;;;18.45;5.15;;;;;;;5.85;67.95;101793.28;5091499;28;20036;-79
2021/04/02 09:46:43;;;;;;;23.10;4.90;;;;;;;5.90;68.67;101795.63;5090649;28;20031;-78
2021/04/02 09:49:14;;;;;;;19.38;4.32;;;;;;;5.80;68.65;101781.28;5089819;28;20043;-78
2021/04/02 09:51:45;;;;;;;18.35;4.53;;;;;;;5.87;69.03;101786.06;5090263;28;20036;-65
2021/04/02 09:54:13;;;;;;;26.10;5.50;;;;;;;5.96;69.32;101795.19;5090277;28;20036;-65
2021/04/02 09:56:39;;;;;;;21.90;5.47;;;;;;;5.98;69.31;101789.81;5073548;28;20032;-65
2021/04/02 09:59:07;;;;;;;18.52;4.97;;;;;;;6.09;69.07;101779.31;5090916;28;20451;-65
2021/04/02 10:01:34;;;;;;;16.98;4.55;;;;;;;6.16;67.70;101775.25;5090583;28;20122;-65
2021/04/02 10:04:00;;;;;;;15.77;3.95;;;;;;;6.01;68.02;101774.53;5089959;28;20052;-65
2021/04/02 10:06:26;;;;;;;18.95;5.28;;;;;;;6.04;68.25;101770.81;5090354;28;20130;-65
2021/04/02 10:08:52;;;;;;;16.52;4.13;;;;;;;6.15;68.19;101773.53;5090885;28;20034;-65
2021/04/02 10:11:17;;;;;;;14.00;4.33;;;;;;;6.12;67.50;101768.47;5089980;28;20453;-65
2021/04/02 10:13:42;;;;;;;16.77;4.00;;;;;;;6.18;68.14;101772.47;5091193;28;20044;-65
2021/04/02 10:16:09;;;;;;;25.07;5.07;;;;;;;6.17;66.94;101766.34;5091174;28;20028;-65
2021/04/02 10:18:35;;;;;;;16.40;4.43;;;;;;;6.04;67.36;101758.41;5089771;28;20032;-65
2021/04/02 10:21:00;;;;;;;20.23;4.25;;;;;;;6.20;66.96;101766.09;5091050;28;20047;-65
2021/04/02 10:23:26;;;;;;;13.80;4.17;;;;;;;6.08;67.03;101764.34;5091102;28;20040;-65
2021/04/02 10:25:51;;;;;;;16.57;4.53;;;;;;;6.18;66.77;101769.81;5090963;28;20024;-65
2021/04/02 10:28:17;;;;;;;21.93;5.20;;;;;;;6.22;66.88;101750.94;5089739;28;20460;-64
2021/04/02 10:30:42;;;;;;;14.93;3.93;;;;;;;6.34;67.60;101752.75;5089730;28;20032;-65
2021/04/02 10:33:07;;;;;;;10.68;4.28;;;;;;;6.44;66.99;101752.03;5090377;28;20036;-65
2021/04/02 10:35:35;;;;;;;22.57;4.73;;;;;;;6.36;67.07;101757.06;5090744;28;20023;-65
2021/04/02 10:38:01;;;;;;;20.67;4.68;;;;;;;6.31;66.76;101747.63;5089798;28;20036;-65
2021/04/02 10:40:26;;;;;;;9.35;4.20;;;;;;;6.28;66.51;101734.59;5089860;28;20044;-65
2021/04/02 10:42:52;;;;;;;18.53;4.90;;;;;;;6.33;66.86;101742.22;5090880;28;20184;-64
2021/04/02 10:45:17;;;;;;;18.67;3.55;;;;;;;6.58;67.22;101729.81;5089763;28;20123;-65
2021/04/02 10:47:43;;;;;;;12.30;3.23;;;;;;;6.64;66.60;101732.03;5072436;28;20047;-65
2021/04/02 10:50:09;;;;;;;17.57;3.67;;;;;;;6.67;66.62;101716.75;5090824;28;20043;-65
2021/04/02 10:52:35;;;;;;;12.52;5.03;;;;;;;6.67;65.72;101705.25;5090632;28;20995;-78
2021/04/02 10:55:00;;;;;;;17.38;3.20;;;;;;;6.74;65.04;101704.72;5091284;28;20110;-77
2021/04/02 10:57:26;;;;;;;19.20;4.53;;;;;;;6.82;63.97;101692.69;5089898;28;20158;-78
2021/04/02 10:59:51;;;;;;;11.67;3.70;;;;;;;6.95;64.34;101696.94;5073030;28;20496;-78
2021/04/02 11:02:17;;;;;;;15.40;3.77;;;;;;;6.82;64.04;101700.63;5092076;28;20369;-78
2021/04/02 11:04:42;;;;;;;15.63;3.77;;;;;;;6.78;64.45;101697.34;5094359;28;20128;-78
2021/04/02 11:07:07;;;;;;;19.57;3.87;;;;;;;6.61;63.99;101693.31;5092937;28;20040;-79
2021/04/02 11:09:33;;;;;;;10.88;3.28;;;;;;;6.73;63.96;101681.75;5093126;28;20040;-78
2021/04/02 11:11:58;;;;;;;17.60;3.17;;;;;;;6.98;63.46;101682.59;5094468;28;20044;-78
2021/04/02 11:14:24;;;;;;;14.93;3.27;;;;;;;7.04;62.19;101687.41;5094653;28;20028;-78
2021/04/02 11:16:49;;;;;;;14.67;3.83;;;;;;;6.93;62.10;101695.34;5093469;28;20044;-79
2021/04/02 11:19:15;;;;;;;16.40;3.30;;;;;;;6.83;62.18;101691.69;5093269;28;20338;-79
2021/04/02 11:21:40;;;;;;;18.70;3.77;;;;;;;6.85;62.65;101703.06;5094349;28;20376;-77
2021/04/02 11:24:06;;;;;;;15.80;4.60;;;;;;;6.88;62.15;101708.13;5093615;28;20111;-78
2021/04/02 11:26:31;;;;;;;12.93;3.90;;;;;;;6.85;62.45;101703.88;5076554;28;20086;-77
2021/04/02 11:28:56;;;;;;;14.57;3.60;;;;;;;6.93;63.46;101716.59;5075950;28;20036;-78
2021/04/02 11:31:22;;;;;;;15.63;3.23;;;;;;;6.91;62.07;101723.84;5094033;28;20027;-78